createdAt,value
2018-11-27T00:00:28.162Z,12.90
2018-11-27T00:02:59.745Z,13.17
2018-11-27T00:05:28.989Z,13.43
2018-11-27T00:07:57.840Z,12.70
2018-11-27T00:10:26.705Z,13.17
2018-11-27T00:12:55.552Z,11.80
2018-11-27T00:15:24.777Z,13.30
2018-11-27T00:17:53.713Z,12.70
2018-11-27T00:20:22.543Z,13.30
2018-11-27T00:22:51.344Z,12.60
2018-11-27T00:25:20.636Z,13.60
2018-11-27T00:27:49.847Z,14.07
2018-11-27T00:30:20.048Z,14.20
2018-11-27T00:32:49.221Z,15.03
2018-11-27T00:35:19.106Z,15.43
2018-11-27T00:37:48.159Z,13.17
2018-11-27T00:40:19.478Z,14.17
2018-11-27T00:42:48.331Z,13.13
2018-11-27T00:45:17.854Z,14.83
2018-11-27T00:47:47.233Z,13.53
2018-11-27T00:50:16.561Z,12.57
2018-11-27T00:52:45.845Z,13.20
2018-11-27T00:55:15.277Z,14.30
2018-11-27T00:57:45.364Z,14.33
2018-11-27T01:00:16.819Z,14.07
2018-11-27T01:02:46.061Z,13.83
2018-11-27T01:05:15.430Z,14.87
2018-11-27T01:07:44.282Z,14.30
2018-11-27T01:10:14.742Z,15.20
2018-11-27T01:12:43.706Z,15.20
2018-11-27T01:15:13.608Z,14.97
2018-11-27T01:17:45.013Z,14.70
2018-11-27T01:20:15.298Z,16.17
2018-11-27T01:22:44.226Z,15.40
2018-11-27T01:25:13.226Z,15.77
2018-11-27T01:27:42.038Z,16.43
2018-11-27T01:30:11.642Z,16.60
2018-11-27T01:32:40.467Z,18.07
2018-11-27T01:35:13.722Z,17.57
2018-11-27T01:37:42.686Z,16.67
2018-11-27T01:40:15.004Z,16.87
2018-11-27T01:42:44.387Z,17.07
2018-11-27T01:45:13.710Z,17.30
2018-11-27T01:47:42.509Z,18.53
2018-11-27T01:50:11.937Z,17.80
2018-11-27T01:52:40.811Z,18.20
2018-11-27T01:55:11.207Z,19.47
2018-11-27T01:57:40.130Z,18.90
2018-11-27T02:00:13.758Z,17.63
2018-11-27T02:02:42.980Z,16.87
2018-11-27T02:05:11.878Z,16.07
2018-11-27T02:07:40.730Z,18.40
2018-11-27T02:10:12.186Z,17.57
2018-11-27T02:12:42.771Z,17.30
2018-11-27T02:15:12.459Z,17.77
2018-11-27T02:17:41.350Z,13.37
2018-11-27T02:20:10.771Z,11.63
2018-11-27T02:22:40.242Z,13.63
2018-11-27T02:25:14.593Z,13.40
2018-11-27T02:27:43.904Z,13.57
2018-11-27T02:30:13.375Z,11.77
2018-11-27T02:32:42.705Z,14.70
2018-11-27T02:35:12.842Z,16.03
2018-11-27T02:37:41.670Z,16.77
2018-11-27T02:40:12.229Z,16.90
2018-11-27T02:42:41.059Z,14.03
2018-11-27T02:45:19.730Z,14.93
2018-11-27T02:47:49.054Z,13.53
2018-11-27T02:50:19.575Z,13.10
2018-11-27T02:52:48.390Z,14.47
2018-11-27T02:55:22.213Z,14.80
2018-11-27T02:57:51.132Z,14.87
2018-11-27T03:00:20.558Z,16.80
2018-11-27T03:02:49.768Z,16.87
2018-11-27T03:05:20.529Z,18.03
2018-11-27T03:07:49.352Z,16.53
2018-11-27T03:10:18.924Z,18.23
2018-11-27T03:12:48.115Z,16.83
2018-11-27T03:15:18.071Z,17.40
2018-11-27T03:17:47.000Z,17.60
2018-11-27T03:20:16.634Z,17.87
2018-11-27T03:22:45.907Z,18.37
2018-11-27T03:25:15.356Z,17.60
2018-11-27T03:27:44.554Z,16.23
2018-11-27T03:30:13.872Z,17.00
2018-11-27T03:32:42.851Z,16.57
2018-11-27T03:35:12.208Z,15.87
2018-11-27T03:37:41.075Z,15.43
2018-11-27T03:40:10.679Z,16.57
2018-11-27T03:42:39.594Z,19.17
2018-11-27T03:45:09.316Z,17.53
2018-11-27T03:47:38.146Z,19.53
2018-11-27T03:50:09.376Z,16.50
2018-11-27T03:52:38.179Z,18.07
2018-11-27T03:55:07.452Z,19.93
2018-11-27T03:57:36.314Z,18.37
2018-11-27T04:00:07.435Z,18.83
2018-11-27T04:02:36.315Z,19.17
2018-11-27T04:05:05.298Z,18.80
2018-11-27T04:07:34.134Z,22.63
2018-11-27T04:10:02.967Z,22.03
2018-11-27T04:12:31.780Z,20.75
2018-11-27T04:15:00.651Z,19.00
2018-11-27T04:17:29.480Z,19.80
2018-11-27T04:19:58.282Z,19.07
2018-11-27T04:22:27.094Z,17.57
2018-11-27T04:24:55.906Z,17.83
2018-11-27T04:27:24.773Z,15.87
2018-11-27T04:29:53.595Z,16.67
2018-11-27T04:32:22.418Z,17.40
2018-11-27T04:34:51.244Z,16.63
2018-11-27T04:37:20.468Z,15.37
2018-11-27T04:39:49.812Z,17.03
2018-11-27T04:42:19.399Z,16.27
2018-11-27T04:44:48.186Z,15.30
2018-11-27T04:47:17.008Z,16.13
2018-11-27T04:49:45.823Z,15.70
2018-11-27T04:52:15.046Z,14.57
2018-11-27T04:54:43.954Z,16.10
2018-11-27T04:57:12.767Z,17.83
2018-11-27T04:59:41.570Z,16.00
2018-11-27T05:02:10.788Z,14.67
2018-11-27T05:04:39.731Z,16.47
2018-11-27T05:07:08.531Z,16.10
2018-11-27T05:09:37.360Z,17.93
2018-11-27T05:12:06.204Z,14.60
2018-11-27T05:14:35.046Z,15.60
2018-11-27T05:17:03.931Z,16.50
2018-11-27T05:19:32.855Z,20.30
2018-11-27T05:22:01.705Z,21.03
2018-11-27T05:24:30.530Z,20.10
2018-11-27T05:26:59.384Z,18.97
2018-11-27T05:29:28.238Z,19.80
2018-11-27T05:31:57.442Z,17.07
2018-11-27T05:34:26.358Z,20.40
2018-11-27T05:36:55.174Z,16.03
2018-11-27T05:39:24.023Z,17.93
2018-11-27T05:41:52.858Z,17.03
2018-11-27T05:44:22.078Z,20.53
2018-11-27T05:46:51.014Z,23.33
2018-11-27T05:49:19.842Z,19.53
2018-11-27T05:51:48.680Z,21.53
2018-11-27T05:54:17.558Z,15.40
2018-11-27T05:56:46.368Z,10.60
2018-11-27T05:59:15.159Z,14.70
2018-11-27T06:01:44.023Z,19.97
2018-11-27T06:04:12.827Z,13.37
2018-11-27T06:06:41.642Z,16.97
2018-11-27T06:09:10.642Z,13.80
2018-11-27T06:11:39.613Z,24.23
2018-11-27T06:14:08.450Z,17.43
2018-11-27T06:16:37.267Z,17.80
2018-11-27T06:19:06.134Z,19.83
2018-11-27T06:21:34.957Z,17.52
2018-11-27T06:24:03.793Z,18.60
2018-11-27T06:26:32.620Z,16.73
2018-11-27T06:29:01.478Z,20.63
2018-11-27T06:31:30.352Z,21.23
2018-11-27T06:33:59.150Z,15.70
2018-11-27T06:36:28.039Z,25.40
2018-11-27T06:38:56.847Z,25.00
2018-11-27T06:41:25.667Z,27.03
2018-11-27T06:43:54.527Z,20.53
2018-11-27T06:46:23.381Z,21.53
2018-11-27T06:48:52.270Z,20.23
2018-11-27T06:51:21.167Z,17.43
2018-11-27T06:53:50.003Z,15.40
2018-11-27T06:56:18.857Z,18.40
2018-11-27T06:58:47.685Z,18.50
2018-11-27T07:01:16.529Z,12.90
2018-11-27T07:03:45.374Z,24.27
2018-11-27T07:06:14.619Z,15.70
2018-11-27T07:08:43.550Z,24.90
2018-11-27T07:11:12.407Z,25.97
2018-11-27T07:13:41.250Z,21.57
2018-11-27T07:16:10.078Z,16.20
2018-11-27T07:18:38.891Z,17.70
2018-11-27T07:21:07.774Z,16.80
2018-11-27T07:23:36.687Z,14.23
2018-11-27T07:26:05.650Z,14.63
2018-11-27T07:28:34.450Z,19.80
2018-11-27T07:31:03.335Z,22.03
2018-11-27T07:33:32.193Z,15.73
2018-11-27T07:36:01.058Z,24.07
2018-11-27T07:38:29.869Z,15.47
2018-11-27T07:40:58.735Z,15.70
2018-11-27T07:43:27.523Z,15.80
2018-11-27T07:45:56.314Z,12.67
2018-11-27T07:48:25.159Z,13.17
2018-11-27T07:50:54.062Z,15.53
2018-11-27T07:53:22.889Z,11.60
2018-11-27T07:55:51.736Z,15.80
2018-11-27T07:58:21.063Z,12.47
2018-11-27T08:00:49.969Z,14.50
2018-11-27T08:03:18.798Z,12.87
2018-11-27T08:05:48.051Z,13.40
2018-11-27T08:08:19.882Z,12.40
2018-11-27T08:10:49.015Z,12.53
2018-11-27T08:13:17.910Z,12.07
2018-11-27T08:15:46.749Z,14.43
2018-11-27T08:18:15.553Z,12.70
2018-11-27T08:20:44.378Z,11.20
2018-11-27T08:23:13.214Z,13.00
2018-11-27T08:25:42.067Z,11.53
2018-11-27T08:28:10.919Z,13.87
2018-11-27T08:30:39.806Z,11.57
2018-11-27T08:33:08.666Z,13.13
2018-11-27T08:35:37.495Z,12.67
2018-11-27T08:38:06.406Z,12.90
2018-11-27T08:40:35.272Z,11.30
2018-11-27T08:43:04.134Z,18.10
2018-11-27T08:45:32.987Z,16.53
2018-11-27T08:48:01.802Z,15.07
2018-11-27T08:50:30.678Z,12.65
2018-11-27T08:53:00.203Z,15.30
2018-11-27T08:55:32.019Z,13.27
2018-11-27T08:58:01.740Z,12.50
2018-11-27T09:00:33.696Z,14.07
2018-11-27T09:03:02.978Z,12.03
2018-11-27T09:05:31.804Z,13.50
2018-11-27T09:08:00.627Z,13.33
2018-11-27T09:10:29.490Z,13.23
2018-11-27T09:12:58.656Z,13.10
2018-11-27T09:15:27.205Z,14.50
2018-11-27T09:18:00.027Z,14.00
2018-11-27T09:20:28.875Z,14.03
2018-11-27T09:22:57.671Z,13.17
2018-11-27T09:25:26.466Z,13.00
2018-11-27T09:27:55.303Z,14.40
2018-11-27T09:30:25.637Z,14.33
2018-11-27T09:32:54.996Z,13.53
2018-11-27T09:35:23.803Z,13.30
2018-11-27T09:37:52.623Z,14.30
2018-11-27T09:40:21.861Z,14.97
2018-11-27T09:42:50.710Z,12.70
2018-11-27T09:45:20.484Z,16.97
2018-11-27T09:47:49.894Z,12.53
2018-11-27T09:50:19.526Z,17.67
2018-11-27T09:52:48.398Z,18.60
2018-11-27T09:55:17.729Z,18.67
2018-11-27T09:57:46.577Z,16.40
2018-11-27T10:00:31.858Z,15.40
2018-11-27T10:03:08.052Z,19.40
2018-11-27T10:05:36.876Z,18.17
2018-11-27T10:08:06.227Z,15.23
2018-11-27T10:10:35.106Z,14.70
2018-11-27T10:13:03.958Z,23.20
2018-11-27T10:15:32.861Z,17.07
2018-11-27T10:18:01.977Z,15.23
2018-11-27T10:20:33.574Z,15.67
2018-11-27T10:23:02.394Z,15.80
2018-11-27T10:25:31.258Z,20.52
2018-11-27T10:28:00.110Z,19.33
2018-11-27T10:30:29.005Z,20.63
2018-11-27T10:32:58.302Z,20.37
2018-11-27T10:35:28.587Z,17.80
2018-11-27T10:37:57.812Z,19.87
2018-11-27T10:40:26.774Z,21.77
2018-11-27T10:42:55.602Z,21.03
2018-11-27T10:45:24.498Z,21.37
2018-11-27T10:47:53.913Z,20.67
2018-11-27T10:50:23.305Z,20.82
2018-11-27T10:52:52.786Z,20.60
2018-11-27T10:55:22.543Z,20.03
2018-11-27T10:57:51.458Z,21.13
2018-11-27T11:00:27.950Z,24.57
2018-11-27T11:03:06.926Z,22.83
2018-11-27T11:05:36.870Z,22.42
2018-11-27T11:08:05.791Z,21.20
2018-11-27T11:10:34.685Z,24.02
2018-11-27T11:13:03.515Z,24.77
2018-11-27T11:15:32.382Z,21.35
2018-11-27T11:18:01.350Z,23.40
2018-11-27T11:20:30.289Z,23.87
2018-11-27T11:22:59.122Z,23.90
2018-11-27T11:25:27.998Z,24.63
2018-11-27T11:27:57.602Z,24.20
2018-11-27T11:30:29.129Z,22.67
2018-11-27T11:32:58.015Z,24.07
2018-11-27T11:35:26.846Z,23.80
2018-11-27T11:37:55.675Z,23.80
2018-11-27T11:40:25.370Z,23.22
2018-11-27T11:42:55.157Z,21.93
2018-11-27T11:45:24.020Z,21.20
2018-11-27T11:47:52.926Z,14.83
2018-11-27T11:50:22.342Z,10.57
2018-11-27T11:52:51.979Z,7.93
2018-11-27T11:55:20.800Z,4.70
2018-11-27T11:57:49.901Z,3.80
2018-11-27T12:00:20.689Z,3.43
2018-11-27T12:02:49.498Z,2.97
2018-11-27T12:05:18.724Z,3.37
2018-11-27T12:07:48.140Z,3.47
2018-11-27T12:10:17.326Z,3.40
2018-11-27T12:12:46.608Z,3.23
2018-11-27T12:15:17.960Z,3.13
2018-11-27T12:17:47.060Z,3.10
2018-11-27T12:20:16.270Z,2.53
2018-11-27T12:22:47.851Z,2.53
2018-11-27T12:25:16.657Z,2.93
2018-11-27T12:27:47.955Z,2.80
2018-11-27T12:30:19.398Z,2.97
2018-11-27T12:32:48.348Z,2.90
2018-11-27T12:35:18.038Z,2.53
2018-11-27T12:37:47.167Z,3.13
2018-11-27T12:40:17.503Z,3.10
2018-11-27T12:42:46.314Z,2.50
2018-11-27T12:45:15.650Z,2.93
2018-11-27T12:47:44.635Z,3.00
2018-11-27T12:50:16.940Z,3.30
2018-11-27T12:52:45.914Z,2.80
2018-11-27T12:55:16.407Z,3.27
2018-11-27T12:57:45.394Z,2.97
2018-11-27T13:00:15.236Z,3.07
2018-11-27T13:02:44.107Z,2.90
2018-11-27T13:05:13.543Z,3.20
2018-11-27T13:07:43.012Z,3.37
2018-11-27T13:10:13.432Z,3.13
2018-11-27T13:12:42.525Z,3.90
2018-11-27T13:15:14.096Z,3.83
2018-11-27T13:17:43.317Z,4.77
2018-11-27T13:20:12.653Z,5.10
2018-11-27T13:22:41.539Z,4.87
2018-11-27T13:25:11.775Z,5.33
2018-11-27T13:27:40.655Z,4.17
2018-11-27T13:30:15.371Z,4.07
2018-11-27T13:32:44.850Z,3.67
2018-11-27T13:35:14.335Z,3.67
2018-11-27T13:37:43.277Z,4.17
2018-11-27T13:40:12.621Z,3.80
2018-11-27T13:42:41.596Z,4.23
2018-11-27T13:45:11.887Z,3.77
2018-11-27T13:47:40.843Z,4.30
2018-11-27T13:50:10.441Z,3.53
2018-11-27T13:52:39.522Z,3.37
2018-11-27T13:55:22.904Z,3.57
2018-11-27T13:57:51.741Z,4.27
2018-11-27T14:00:20.834Z,6.37
2018-11-27T14:02:50.475Z,4.73
2018-11-27T14:05:19.822Z,4.73
2018-11-27T14:07:48.645Z,4.60
2018-11-27T14:10:17.494Z,4.30
2018-11-27T14:12:46.311Z,4.20
2018-11-27T14:15:18.594Z,4.63
2018-11-27T14:17:47.536Z,5.30
2018-11-27T14:20:16.453Z,4.33
2018-11-27T14:22:45.747Z,4.37
2018-11-27T14:25:14.706Z,5.00
2018-11-27T14:27:43.662Z,4.63
2018-11-27T14:30:18.190Z,4.73
2018-11-27T14:32:47.132Z,5.20
2018-11-27T14:35:16.475Z,4.90
2018-11-27T14:37:45.669Z,5.33
2018-11-27T14:40:15.908Z,5.37
2018-11-27T14:42:44.773Z,5.07
2018-11-27T14:45:15.122Z,6.03
2018-11-27T14:47:44.338Z,6.03
2018-11-27T14:50:13.166Z,6.10
2018-11-27T14:52:42.030Z,6.07
2018-11-27T14:55:13.203Z,5.33
2018-11-27T14:57:42.105Z,6.60
2018-11-27T15:00:12.518Z,5.47
2018-11-27T15:02:41.346Z,5.90
2018-11-27T15:05:11.022Z,5.40
2018-11-27T15:07:39.844Z,5.13
2018-11-27T15:10:09.501Z,5.10
2018-11-27T15:12:38.747Z,5.33
2018-11-27T15:15:08.601Z,5.17
2018-11-27T15:17:37.462Z,5.90
2018-11-27T15:20:08.606Z,5.73
2018-11-27T15:22:37.431Z,5.27
2018-11-27T15:25:06.499Z,5.53
2018-11-27T15:27:35.810Z,5.17
2018-11-27T15:30:07.888Z,5.07
2018-11-27T15:32:36.719Z,4.20
2018-11-27T15:35:05.587Z,4.53
2018-11-27T15:37:34.470Z,4.42
2018-11-27T15:40:05.209Z,4.63
2018-11-27T15:42:34.190Z,4.90
2018-11-27T15:45:03.052Z,5.10
2018-11-27T15:47:32.300Z,5.90
2018-11-27T15:50:01.203Z,6.10
2018-11-27T15:52:30.988Z,5.97
2018-11-27T15:54:59.980Z,7.10
2018-11-27T15:57:28.839Z,6.83
2018-11-27T15:59:57.636Z,7.13
2018-11-27T16:02:26.454Z,7.10
2018-11-27T16:04:55.314Z,7.27
2018-11-27T16:07:24.567Z,7.17
2018-11-27T16:09:59.935Z,8.83
2018-11-27T16:12:28.869Z,8.90
2018-11-27T16:14:57.706Z,9.80
2018-11-27T16:17:26.768Z,9.57
2018-11-27T16:19:55.610Z,9.00
2018-11-27T16:22:24.423Z,10.43
2018-11-27T16:24:53.242Z,9.47
2018-11-27T16:27:22.468Z,8.70
2018-11-27T16:29:51.635Z,9.00
2018-11-27T16:32:20.594Z,9.60
2018-11-27T16:34:49.396Z,10.10
2018-11-27T16:37:18.455Z,9.63
2018-11-27T16:39:47.311Z,9.77
2018-11-27T16:42:16.117Z,9.20
2018-11-27T16:44:45.360Z,9.30
2018-11-27T16:47:14.318Z,9.37
2018-11-27T16:49:43.159Z,10.33
2018-11-27T16:52:11.998Z,8.80
2018-11-27T16:54:40.826Z,10.00
2018-11-27T16:57:09.627Z,10.70
2018-11-27T16:59:38.488Z,9.73
2018-11-27T17:02:07.443Z,9.87
2018-11-27T17:04:36.632Z,10.73
2018-11-27T17:07:05.902Z,11.13
2018-11-27T17:09:34.760Z,9.37
2018-11-27T17:12:03.586Z,11.55
2018-11-27T17:14:32.420Z,10.20
2018-11-27T17:17:01.363Z,10.47
2018-11-27T17:19:30.229Z,11.33
2018-11-27T17:21:59.058Z,10.90
2018-11-27T17:24:27.895Z,11.47
2018-11-27T17:26:57.128Z,8.27
2018-11-27T17:29:26.155Z,10.17
2018-11-27T17:31:55.024Z,10.30
2018-11-27T17:34:23.852Z,11.10
2018-11-27T17:36:52.673Z,14.07
2018-11-27T17:39:21.508Z,11.03
2018-11-27T17:41:50.386Z,10.77
2018-11-27T17:44:19.183Z,12.50
2018-11-27T17:46:48.034Z,12.53
2018-11-27T17:49:16.867Z,15.43
2018-11-27T17:51:45.715Z,14.63
2018-11-27T17:54:14.539Z,14.20
2018-11-27T17:56:43.375Z,14.37
2018-11-27T17:59:12.215Z,14.33
2018-11-27T18:01:41.110Z,14.57
2018-11-27T18:04:09.945Z,15.80
2018-11-27T18:06:38.772Z,14.53
2018-11-27T18:09:08.420Z,14.10
2018-11-27T18:11:37.307Z,15.28
2018-11-27T18:14:06.120Z,14.57
2018-11-27T18:16:35.309Z,13.07
2018-11-27T18:19:04.235Z,11.17
2018-11-27T18:21:33.142Z,11.77
2018-11-27T18:24:02.004Z,12.53
2018-11-27T18:26:30.822Z,13.43
2018-11-27T18:28:59.670Z,12.00
2018-11-27T18:31:28.533Z,10.63
2018-11-27T18:33:57.314Z,12.37
2018-11-27T18:36:26.147Z,11.57
2018-11-27T18:38:54.983Z,12.50
2018-11-27T18:41:23.815Z,11.67
2018-11-27T18:43:52.816Z,13.60
2018-11-27T18:46:21.663Z,12.23
2018-11-27T18:48:50.470Z,12.60
2018-11-27T18:51:20.349Z,11.60
2018-11-27T18:53:54.704Z,12.50
2018-11-27T18:56:18.055Z,14.67
2018-11-27T18:58:46.891Z,14.83
2018-11-27T19:01:15.734Z,13.43
2018-11-27T19:03:44.591Z,14.70
2018-11-27T19:06:13.467Z,14.07
2018-11-27T19:08:42.351Z,14.70
2018-11-27T19:11:11.175Z,14.33
2018-11-27T19:13:40.065Z,13.90
2018-11-27T19:16:08.925Z,12.03
2018-11-27T19:18:37.755Z,11.77
2018-11-27T19:21:06.606Z,12.23
2018-11-27T19:23:35.487Z,12.10
2018-11-27T19:26:04.318Z,10.50
2018-11-27T19:28:34.130Z,11.63
2018-11-27T19:31:02.989Z,10.30
2018-11-27T19:33:31.875Z,11.33
2018-11-27T19:36:00.685Z,10.97
2018-11-27T19:38:29.482Z,10.03
2018-11-27T19:40:58.365Z,10.03
2018-11-27T19:43:27.169Z,9.93
2018-11-27T19:45:56.039Z,10.80
2018-11-27T19:48:24.875Z,10.60
2018-11-27T19:50:53.711Z,9.87
2018-11-27T19:53:22.586Z,9.80
2018-11-27T19:55:51.384Z,10.37
2018-11-27T19:58:20.183Z,11.23
2018-11-27T20:00:49.430Z,11.33
2018-11-27T20:03:18.342Z,11.50
2018-11-27T20:05:47.127Z,9.97
2018-11-27T20:08:16.702Z,9.83
2018-11-27T20:10:45.523Z,9.93
2018-11-27T20:13:14.414Z,9.07
2018-11-27T20:15:43.279Z,11.37
2018-11-27T20:18:12.127Z,9.20
2018-11-27T20:20:40.967Z,9.77
2018-11-27T20:23:09.845Z,8.97
2018-11-27T20:25:39.011Z,7.80
2018-11-27T20:28:08.331Z,8.03
2018-11-27T20:30:37.875Z,8.77
2018-11-27T20:33:06.747Z,8.73
2018-11-27T20:35:35.580Z,9.28
2018-11-27T20:38:07.053Z,12.03
2018-11-27T20:40:35.870Z,9.10
2018-11-27T20:43:04.766Z,9.03
2018-11-27T20:45:33.590Z,9.43
2018-11-27T20:48:17.505Z,8.70
2018-11-27T20:50:47.075Z,7.90
2018-11-27T20:53:15.904Z,9.47
2018-11-27T20:55:44.756Z,9.00
2018-11-27T20:58:13.584Z,8.43
2018-11-27T21:00:43.954Z,9.10
2018-11-27T21:03:13.031Z,8.73
2018-11-27T21:05:41.919Z,9.40
2018-11-27T21:08:10.784Z,7.87
2018-11-27T21:10:39.711Z,8.33
2018-11-27T21:13:09.204Z,6.00
2018-11-27T21:15:38.247Z,5.33
2018-11-27T21:18:07.342Z,6.73
2018-11-27T21:20:36.205Z,6.10
2018-11-27T21:23:05.058Z,6.10
2018-11-27T21:25:33.891Z,6.27
2018-11-27T21:28:07.475Z,5.67
2018-11-27T21:30:36.282Z,6.10
2018-11-27T21:33:05.942Z,6.27
2018-11-27T21:35:34.876Z,6.90
2018-11-27T21:38:03.734Z,5.27
2018-11-27T21:40:32.563Z,5.37
2018-11-27T21:43:01.811Z,5.57
2018-11-27T21:45:31.135Z,5.80
2018-11-27T21:48:00.066Z,5.20
2018-11-27T21:50:34.251Z,5.20
2018-11-27T21:53:03.130Z,5.67
2018-11-27T21:55:32.035Z,5.43
2018-11-27T21:58:00.888Z,5.27
2018-11-27T22:01:32.419Z,5.80
2018-11-27T22:04:01.283Z,5.37
2018-11-27T22:06:30.118Z,6.30
2018-11-27T22:08:59.001Z,5.70
2018-11-27T22:11:27.834Z,5.83
2018-11-27T22:13:56.686Z,6.10
2018-11-27T22:16:25.533Z,5.15
2018-11-27T22:18:54.740Z,5.57
2018-11-27T22:21:23.667Z,4.93
2018-11-27T22:23:52.503Z,4.93
2018-11-27T22:26:21.695Z,5.33
2018-11-27T22:28:50.980Z,5.30
2018-11-27T22:31:20.100Z,5.37
2018-11-27T22:33:49.361Z,5.27
2018-11-27T22:36:19.279Z,5.50
2018-11-27T22:38:48.105Z,4.83
2018-11-27T22:41:17.287Z,4.50
2018-11-27T22:43:46.186Z,4.43
2018-11-27T22:46:15.078Z,5.13
2018-11-27T22:48:43.909Z,5.77
2018-11-27T22:51:12.703Z,4.83
2018-11-27T22:53:41.895Z,4.83
2018-11-27T22:56:10.813Z,3.53
2018-11-27T22:58:39.643Z,3.67
2018-11-27T23:01:08.877Z,3.63
2018-11-27T23:03:37.774Z,3.40
2018-11-27T23:06:06.563Z,4.70
2018-11-27T23:08:35.375Z,2.90
2018-11-27T23:11:04.212Z,3.00
2018-11-27T23:13:33.030Z,2.40
2018-11-27T23:16:01.907Z,2.90
2018-11-27T23:18:31.112Z,2.60
2018-11-27T23:21:00.015Z,2.50
2018-11-27T23:23:28.902Z,3.47
2018-11-27T23:25:58.131Z,2.37
2018-11-27T23:28:27.474Z,2.40
2018-11-27T23:30:56.411Z,3.67
2018-11-27T23:33:25.226Z,2.97
2018-11-27T23:35:54.050Z,3.03
2018-11-27T23:38:22.895Z,2.87
2018-11-27T23:40:51.730Z,2.80
2018-11-27T23:43:20.577Z,3.80
2018-11-27T23:45:49.777Z,2.53
2018-11-27T23:48:19.427Z,2.60
2018-11-27T23:50:48.411Z,2.77
2018-11-27T23:53:17.269Z,2.60
2018-11-27T23:55:46.062Z,2.67
2018-11-27T23:58:14.931Z,2.67
